Time;durP1;ratioP1;P1;durP2;ratioP2;P2;SDS_P1;SDS_P2;PMS_P1;PMS_P2;Temp;Humidity;BMP_temperature;BMP_pressure;BME280_temperature;BME280_humidity;BME280_pressure;Samples;Min_cycle;Max_cycle;Signal;HPM_P1;HPM_P2
2021/06/17 02:46:29;;;;;;;6.07;5.45;;;19.10;75.60;;;;;;5719067;23;88750;-84
2021/06/17 02:48:55;;;;;;;8.07;5.82;;;19.20;76.40;;;;;;4862570;29;87018;-84
2021/06/17 02:51:22;;;;;;;7.50;6.75;;;18.90;76.90;;;;;;4862803;28;86902;-84
2021/06/17 02:53:49;;;;;;;6.47;5.97;;;19.00;77.30;;;;;;4862684;29;87289;-85
2021/06/17 02:56:25;;;;;;;5.80;5.30;;;19.00;78.10;;;;;;4869267;29;86879;-84
2021/06/17 02:58:57;;;;;;;5.97;5.47;;;18.80;78.50;;;;;;4870954;29;86201;-83
2021/06/17 03:01:48;;;;;;;6.28;5.68;;;18.80;78.30;;;;;;4870981;29;87051;-84
2021/06/17 03:04:31;;;;;;;6.00;5.55;;;18.50;79.00;;;;;;4867895;29;88326;-86
2021/06/17 03:06:58;;;;;;;6.43;5.93;;;18.60;79.10;;;;;;4875111;29;89065;-85
2021/06/17 03:09:46;;;;;;;6.28;5.70;;;18.90;79.50;;;;;;4862483;28;87779;-83
2021/06/17 03:12:14;;;;;;;7.20;5.63;;;18.20;80.10;;;;;;4865291;28;87063;-85
2021/06/17 03:14:41;;;;;;;6.47;5.93;;;18.80;80.60;;;;;;4863994;29;87085;-85
2021/06/17 03:17:09;;;;;;;6.60;5.68;;;18.60;80.00;;;;;;4859070;29;87028;-85
2021/06/17 03:19:35;;;;;;;6.85;5.60;;;18.50;80.20;;;;;;4867780;29;86318;-85
2021/06/17 03:22:06;;;;;;;9.10;5.78;;;19.10;80.60;;;;;;4882016;28;86216;-86
2021/06/17 03:24:36;;;;;;;5.75;5.20;;;18.80;80.00;;;;;;4874935;28;87985;-85
2021/06/17 03:27:04;;;;;;;6.70;6.00;;;18.70;80.20;;;;;;4874159;29;87070;-85
2021/06/17 03:29:34;;;;;;;6.65;6.03;;;18.80;80.70;;;;;;4878261;29;87977;-85
2021/06/17 03:32:03;;;;;;;7.10;6.22;;;18.70;80.60;;;;;;4879872;28;86932;-85
2021/06/17 03:34:30;;;;;;;8.10;5.45;;;18.70;80.80;;;;;;4880427;29;88994;-85
2021/06/17 03:36:58;;;;;;;7.45;6.10;;;18.70;80.40;;;;;;4879905;29;87061;-85
2021/06/17 03:39:24;;;;;;;6.47;5.60;;;18.70;80.10;;;;;;4880488;28;87091;-85
2021/06/17 03:41:52;;;;;;;6.60;5.80;;;19.00;80.20;;;;;;4878283;28;87014;-84
2021/06/17 03:44:20;;;;;;;6.78;5.88;;;18.70;79.90;;;;;;4877525;29;87708;-85
2021/06/17 03:46:47;;;;;;;7.15;6.43;;;18.70;80.00;;;;;;4877658;28;86802;-85
2021/06/17 03:49:13;;;;;;;6.40;5.85;;;18.40;80.60;;;;;;4876819;28;87071;-86
2021/06/17 03:51:40;;;;;;;6.68;6.07;;;18.60;81.00;;;;;;4877136;29;86916;-85
2021/06/17 03:54:08;;;;;;;6.00;5.50;;;18.60;81.30;;;;;;4877014;28;88198;-85
2021/06/17 03:56:34;;;;;;;6.25;5.75;;;18.60;81.40;;;;;;4877025;29;88642;-85
2021/06/17 03:59:00;;;;;;;7.72;4.95;;;18.60;81.90;;;;;;4873542;29;86396;-79
2021/06/17 04:01:28;;;;;;;7.10;6.38;;;18.60;83.40;;;;;;4863019;28;87274;-79
2021/06/17 04:03:54;;;;;;;5.00;4.38;;;18.60;83.50;;;;;;4861393;28;86796;-79
2021/06/17 04:06:24;;;;;;;7.38;6.78;;;19.20;84.60;;;;;;4851870;28;87867;-79
2021/06/17 04:08:51;;;;;;;4.80;4.10;;;18.80;84.10;;;;;;4867674;29;86954;-79
2021/06/17 04:11:20;;;;;;;6.40;4.82;;;19.00;83.80;;;;;;4873387;28;86411;-78
2021/06/17 04:13:48;;;;;;;4.53;4.05;;;19.10;85.40;;;;;;4869550;28;86732;-78
2021/06/17 04:16:25;;;;;;;6.60;6.00;;;19.70;84.90;;;;;;4865260;28;86951;-78
2021/06/17 04:18:54;;;;;;;6.15;5.65;;;19.20;85.20;;;;;;4852848;29;87936;-78
2021/06/17 04:21:21;;;;;;;6.78;6.13;;;19.90;85.30;;;;;;4867657;29;86918;-81
2021/06/17 04:24:09;;;;;;;6.28;5.75;;;19.20;84.30;;;;;;4873451;28;87013;-82
2021/06/17 04:26:36;;;;;;;5.82;4.57;;;19.50;84.80;;;;;;4871614;28;88144;-83
2021/06/17 04:29:02;;;;;;;7.18;5.68;;;19.80;84.20;;;;;;4871901;28;86854;-77
2021/06/17 04:31:28;;;;;;;7.60;6.25;;;19.70;83.80;;;;;;4867839;28;87066;-78
2021/06/17 04:33:54;;;;;;;7.15;6.55;;;20.00;83.80;;;;;;4861126;28;87200;-78
2021/06/17 04:36:20;;;;;;;6.88;6.22;;;19.90;83.90;;;;;;4850091;28;87293;-77
2021/06/17 04:38:48;;;;;;;6.40;5.78;;;20.20;84.20;;;;;;4854943;28;86885;-77
2021/06/17 04:41:14;;;;;;;7.63;6.78;;;20.00;84.40;;;;;;4862621;29;86820;-78
2021/06/17 04:43:40;;;;;;;6.30;5.70;;;19.70;84.20;;;;;;4864551;29;88257;-78
2021/06/17 04:46:06;;;;;;;4.90;4.40;;;20.20;84.60;;;;;;4867550;29;88952;-78
2021/06/17 04:48:34;;;;;;;6.88;6.28;;;20.50;84.80;;;;;;4861264;28;86971;-78
2021/06/17 04:51:02;;;;;;;5.80;5.30;;;20.40;84.40;;;;;;4861265;29;86941;-78
2021/06/17 04:53:29;;;;;;;6.97;6.40;;;20.20;84.50;;;;;;4850609;29;88652;-77
2021/06/17 04:55:56;;;;;;;6.20;5.63;;;21.00;84.60;;;;;;4866456;28;86862;-77
2021/06/17 04:58:23;;;;;;;5.38;4.88;;;20.70;84.70;;;;;;4864153;28;86330;-77
2021/06/17 05:00:49;;;;;;;7.00;6.50;;;20.90;85.00;;;;;;4856319;29;87846;-78
2021/06/17 05:03:16;;;;;;;7.05;4.22;;;20.90;85.40;;;;;;4853699;29;86699;-78
2021/06/17 05:05:41;;;;;;;5.13;4.63;;;21.10;84.80;;;;;;4852502;29;86679;-78
2021/06/17 05:10:58;;;;;;;6.35;5.80;;;20.90;83.00;;;;;;4849815;29;86719;-78
2021/06/17 05:13:31;;;;;;;6.13;5.28;;;21.50;82.40;;;;;;4852605;29;86993;-77
2021/06/17 05:15:59;;;;;;;5.95;5.45;;;21.80;81.60;;;;;;4853182;29;87263;-76
2021/06/17 05:18:25;;;;;;;5.97;5.35;;;21.70;81.30;;;;;;4853490;29;86683;-78
2021/06/17 05:24:12;;;;;;;4.45;4.05;;;21.70;82.20;;;;;;4853108;29;86856;-79
2021/06/17 05:26:38;;;;;;;5.90;4.50;;;21.80;82.00;;;;;;4855580;29;87234;-79
2021/06/17 05:32:25;;;;;;;4.80;4.22;;;21.90;82.40;;;;;;4869611;29;86710;-78
2021/06/17 05:34:51;;;;;;;5.35;4.82;;;22.00;81.50;;;;;;4871128;28;89051;-77
2021/06/17 05:37:18;;;;;;;6.22;5.05;;;22.10;81.60;;;;;;4873320;29;87363;-79
2021/06/17 05:39:44;;;;;;;5.93;4.80;;;22.10;83.10;;;;;;4873529;28;86686;-78
2021/06/17 05:42:10;;;;;;;5.80;5.15;;;22.10;82.50;;;;;;4874533;29;86278;-78
2021/06/17 05:44:35;;;;;;;5.10;4.70;;;22.20;83.40;;;;;;4874452;28;86691;-79
2021/06/17 05:47:01;;;;;;;5.85;5.03;;;22.20;83.60;;;;;;4873824;28;87910;-79
2021/06/17 05:49:28;;;;;;;5.13;4.68;;;22.30;83.50;;;;;;4869481;29;86773;-83
2021/06/17 05:51:54;;;;;;;7.68;6.97;;;22.20;84.60;;;;;;4875341;29;86092;-83
2021/06/17 05:54:20;;;;;;;8.25;7.32;;;22.60;83.30;;;;;;4870959;28;87575;-83
2021/06/17 05:56:46;;;;;;;6.90;5.38;;;22.50;83.50;;;;;;4875891;28;86817;-83
2021/06/17 05:59:12;;;;;;;8.82;6.30;;;22.40;83.50;;;;;;4875338;28;87336;-84
2021/06/17 06:01:38;;;;;;;7.38;6.63;;;;;;;;;;4873042;29;87025;-83
2021/06/17 06:04:03;;;;;;;9.93;6.40;;;22.70;84.00;;;;;;4873688;29;87266;-84
2021/06/17 06:06:29;;;;;;;7.63;6.88;;;23.20;83.90;;;;;;4875443;28;86937;-84
2021/06/17 06:08:55;;;;;;;7.43;6.55;;;22.90;84.10;;;;;;4865339;29;86848;-81
2021/06/17 06:11:21;;;;;;;7.82;6.75;;;22.80;84.40;;;;;;4878229;29;87122;-84
2021/06/17 06:13:47;;;;;;;7.22;6.63;;;22.90;84.40;;;;;;4877460;28;87229;-83
2021/06/17 06:16:13;;;;;;;6.95;6.40;;;23.00;85.40;;;;;;4874017;29;87852;-84
2021/06/17 06:18:39;;;;;;;7.20;6.70;;;23.00;85.70;;;;;;4877472;29;87001;-84
2021/06/17 06:21:05;;;;;;;7.18;6.30;;;23.00;85.70;;;;;;4859253;29;87253;-84
2021/06/17 06:23:31;;;;;;;6.45;5.95;;;23.10;86.20;;;;;;4859842;29;89234;-85
2021/06/17 06:25:58;;;;;;;7.82;7.10;;;23.10;86.60;;;;;;4859813;28;88403;-83
2021/06/17 06:28:26;;;;;;;7.15;6.53;;;23.20;82.60;;;;;;4859770;29;86590;-85
2021/06/17 06:30:53;;;;;;;7.15;6.45;;;23.20;83.20;;;;;;4875677;28;87160;-84
2021/06/17 06:33:20;;;;;;;6.70;6.10;;;23.40;82.00;;;;;;4876033;29;87300;-84
2021/06/17 06:35:47;;;;;;;6.72;6.13;;;23.60;82.60;;;;;;4859891;28;87470;-83
2021/06/17 06:38:12;;;;;;;7.05;6.38;;;23.50;83.80;;;;;;4859669;29;86772;-84
2021/06/17 06:40:39;;;;;;;7.45;6.75;;;23.60;83.60;;;;;;4860855;29;86349;-84
2021/06/17 06:43:06;;;;;;;7.82;6.95;;;23.70;82.90;;;;;;4872053;29;87363;-85
2021/06/17 06:45:32;;;;;;;7.28;6.40;;;23.70;83.40;;;;;;4877172;29;87488;-83
2021/06/17 06:47:58;;;;;;;7.10;6.40;;;23.70;83.60;;;;;;4875066;29;88076;-85
2021/06/17 06:50:24;;;;;;;6.82;6.20;;;23.80;83.80;;;;;;4877076;28;87078;-85
2021/06/17 06:52:50;;;;;;;7.15;6.45;;;23.90;83.10;;;;;;4876740;28;86790;-84
2021/06/17 06:55:16;;;;;;;6.97;5.03;;;23.90;84.70;;;;;;4872645;29;87487;-84
2021/06/17 06:57:42;;;;;;;8.18;7.38;;;24.00;83.10;;;;;;4860770;29;87081;-85
2021/06/17 07:00:11;;;;;;;8.45;6.70;;;24.10;83.50;;;;;;4863929;29;86940;-85
2021/06/17 07:02:37;;;;;;;7.40;6.68;;;24.10;83.00;;;;;;4864609;29;86818;-84
2021/06/17 07:05:06;;;;;;;6.93;6.32;;;24.20;82.10;;;;;;4877842;28;86724;-84
2021/06/17 07:07:32;;;;;;;8.23;6.83;;;24.20;84.10;;;;;;4876496;28;87086;-84
2021/06/17 07:09:59;;;;;;;6.57;5.88;;;24.30;84.60;;;;;;4877237;28;86909;-85
2021/06/17 07:12:25;;;;;;;7.15;6.45;;;24.40;84.20;;;;;;4875945;28;88637;-85
2021/06/17 07:14:51;;;;;;;7.22;6.55;;;24.40;82.20;;;;;;4876308;29;88007;-84
2021/06/17 07:17:18;;;;;;;8.10;6.53;;;24.50;81.40;;;;;;4875461;28;86898;-85
2021/06/17 07:19:44;;;;;;;7.13;6.43;;;24.60;80.70;;;;;;4876358;28;86472;-85
2021/06/17 07:22:10;;;;;;;7.40;6.80;;;24.70;81.10;;;;;;4876392;29;87103;-85
2021/06/17 07:24:36;;;;;;;7.97;7.18;;;24.70;81.60;;;;;;4870637;28;86943;-84
2021/06/17 07:27:03;;;;;;;8.18;7.38;;;24.80;82.30;;;;;;4877322;29;86759;-84
2021/06/17 07:29:29;;;;;;;8.15;7.45;;;24.90;83.40;;;;;;4865871;29;86245;-85
2021/06/17 07:31:55;;;;;;;7.80;6.97;;;24.90;83.40;;;;;;4875873;28;88129;-85
2021/06/17 07:34:21;;;;;;;7.53;6.72;;;25.00;82.40;;;;;;4871455;29;86836;-85
2021/06/17 07:36:48;;;;;;;10.10;7.03;;;25.10;82.90;;;;;;4861334;29;87516;-85
2021/06/17 07:39:15;;;;;;;7.50;6.70;;;25.10;83.20;;;;;;4874414;29;87020;-85
2021/06/17 07:41:41;;;;;;;8.50;6.68;;;25.20;82.70;;;;;;4875419;28;87032;-85
2021/06/17 07:44:07;;;;;;;8.88;7.03;;;25.40;82.30;;;;;;4865249;28;87053;-84
2021/06/17 07:46:33;;;;;;;7.60;6.82;;;25.50;82.70;;;;;;4865454;29;86693;-85
2021/06/17 07:48:59;;;;;;;7.97;7.03;;;25.60;82.40;;;;;;4875046;28;86853;-85
2021/06/17 07:51:26;;;;;;;7.45;6.72;;;25.80;80.70;;;;;;4874908;28;87488;-84
2021/06/17 07:53:51;;;;;;;9.38;7.38;;;25.90;81.80;;;;;;4876468;28;86441;-84
2021/06/17 07:56:20;;;;;;;8.23;7.40;;;26.00;81.40;;;;;;4874715;29;86952;-85
2021/06/17 07:58:47;;;;;;;7.78;7.07;;;26.10;80.20;;;;;;4859839;29;86963;-83
2021/06/17 08:01:12;;;;;;;8.00;7.25;;;26.20;78.30;;;;;;4870363;29;88237;-84
2021/06/17 08:03:38;;;;;;;8.93;7.40;;;26.30;77.40;;;;;;4890725;28;89700;-84
2021/06/17 08:06:04;;;;;;;7.70;7.00;;;26.30;78.00;;;;;;4877129;29;86965;-85
2021/06/17 08:08:30;;;;;;;7.18;6.47;;;26.30;76.60;;;;;;4876186;29;86700;-84
2021/06/17 08:10:56;;;;;;;8.38;7.15;;;26.50;78.50;;;;;;4874966;28;87294;-85
2021/06/17 08:13:22;;;;;;;8.60;7.90;;;26.50;77.50;;;;;;4876362;28;86984;-85
2021/06/17 08:15:49;;;;;;;8.57;7.68;;;26.60;78.00;;;;;;4875370;28;87074;-85
2021/06/17 08:18:15;;;;;;;7.25;6.55;;;26.70;77.80;;;;;;4876342;29;86308;-85
2021/06/17 08:20:42;;;;;;;7.57;6.82;;;26.70;77.30;;;;;;4865123;29;87091;-85
2021/06/17 08:23:08;;;;;;;8.00;7.30;;;26.80;77.40;;;;;;4876122;29;87309;-84
2021/06/17 08:25:34;;;;;;;7.85;7.15;;;26.90;77.50;;;;;;4876441;28;88330;-83
2021/06/17 08:28:04;;;;;;;7.35;6.60;;;26.90;77.20;;;;;;4884578;28;87000;-85
2021/06/17 08:30:31;;;;;;;7.35;6.65;;;27.00;75.60;;;;;;4885023;28;86884;-82
2021/06/17 08:32:57;;;;;;;7.00;6.40;;;27.10;75.40;;;;;;4868517;29;86825;-83
2021/06/17 08:35:23;;;;;;;7.78;7.10;;;27.30;75.10;;;;;;4882709;29;86918;-83
2021/06/17 08:37:49;;;;;;;7.15;6.45;;;27.40;75.40;;;;;;4882519;28;86360;-83
2021/06/17 08:40:16;;;;;;;11.43;6.72;;;27.50;75.10;;;;;;4871950;28;87001;-82
2021/06/17 08:42:42;;;;;;;7.97;7.10;;;27.60;74.90;;;;;;4869722;29;87333;-83
2021/06/17 08:45:10;;;;;;;7.95;6.68;;;27.60;73.80;;;;;;4877026;29;87089;-83
2021/06/17 08:47:37;;;;;;;8.27;7.07;;;27.70;73.70;;;;;;4874448;28;87153;-85
2021/06/17 08:50:07;;;;;;;7.03;6.47;;;27.80;73.00;;;;;;4874325;28;87883;-83
2021/06/17 08:52:36;;;;;;;7.13;6.53;;;28.00;70.80;;;;;;4874481;28;87224;-83
2021/06/17 08:55:19;;;;;;;6.90;6.30;;;28.30;71.70;;;;;;4874060;28;86632;-83
2021/06/17 08:57:47;;;;;;;7.13;6.60;;;28.50;70.30;;;;;;4875593;28;87015;-86
2021/06/17 09:00:16;;;;;;;7.57;6.88;;;28.70;70.80;;;;;;4874864;28;87619;-82
2021/06/17 09:02:52;;;;;;;7.90;7.20;;;28.90;69.40;;;;;;4872322;28;87224;-83
2021/06/17 09:05:18;;;;;;;7.82;7.05;;;29.10;69.00;;;;;;4864356;28;86677;-84
2021/06/17 09:07:44;;;;;;;7.50;6.82;;;29.40;67.80;;;;;;4876524;28;86233;-84
2021/06/17 09:10:10;;;;;;;7.28;6.47;;;29.60;64.30;;;;;;4877780;29;87791;-81
2021/06/17 09:12:43;;;;;;;8.15;6.95;;;29.80;65.20;;;;;;4877129;29;86884;-84
2021/06/17 09:15:10;;;;;;;10.73;7.30;;;30.10;63.50;;;;;;4866646;29;87922;-83
2021/06/17 09:17:36;;;;;;;6.80;6.30;;;30.50;62.80;;;;;;4890492;28;87054;-85
2021/06/17 09:20:03;;;;;;;7.50;6.90;;;31.00;62.20;;;;;;4875394;29;86985;-84
2021/06/17 09:22:29;;;;;;;7.30;6.80;;;31.40;60.30;;;;;;4865984;29;87448;-85
2021/06/17 09:24:56;;;;;;;6.97;6.20;;;31.90;60.20;;;;;;4860038;29;86321;-84
2021/06/17 09:27:35;;;;;;;7.18;6.68;;;32.70;57.90;;;;;;4864364;29;86695;-84
2021/06/17 09:30:10;;;;;;;7.20;6.60;;;33.70;56.50;;;;;;4875971;28;87710;-84
2021/06/17 09:32:36;;;;;;;7.32;6.80;;;34.50;54.00;;;;;;4876226;28;86429;-84
2021/06/17 09:35:15;;;;;;;7.43;6.82;;;35.40;52.40;;;;;;4866349;29;86541;-84
2021/06/17 09:37:40;;;;;;;7.07;6.53;;;36.90;49.20;;;;;;4860414;29;86577;-85
2021/06/17 09:40:24;;;;;;;6.85;6.43;;;37.90;50.10;;;;;;4859407;29;88115;-84
2021/06/17 09:42:51;;;;;;;7.22;6.70;;;39.10;46.20;;;;;;4867252;29;88846;-84
2021/06/17 09:45:22;;;;;;;7.45;6.90;;;40.00;43.30;;;;;;4873700;28;87295;-84
2021/06/17 09:47:48;;;;;;;7.72;7.18;;;40.70;42.30;;;;;;4875389;28;86921;-84
2021/06/17 09:50:27;;;;;;;7.78;7.25;;;41.30;42.30;;;;;;4876747;29;87175;-84
2021/06/17 09:52:54;;;;;;;;;;;42.40;39.20;;;;;;4875343;28;87142;-84
2021/06/17 09:55:40;;;;;;;7.70;7.15;;;43.00;38.90;;;;;;4873685;29;86814;-85
2021/06/17 09:58:12;;;;;;;8.25;7.68;;;43.70;37.80;;;;;;4875189;29;86188;-84
2021/06/17 10:00:53;;;;;;;8.13;7.40;;;44.40;37.00;;;;;;4874392;29;86743;-83
2021/06/17 10:03:19;;;;;;;8.25;7.70;;;45.40;35.90;;;;;;4889570;28;89121;-85
2021/06/17 10:05:44;;;;;;;7.22;6.60;;;45.20;35.20;;;;;;4872513;28;87750;-84
2021/06/17 10:08:10;;;;;;;8.38;7.78;;;45.50;36.20;;;;;;4867938;29;86409;-83
2021/06/17 10:10:36;;;;;;;8.60;8.10;;;45.90;35.60;;;;;;4872602;29;86729;-83
2021/06/17 10:13:04;;;;;;;7.88;7.38;;;46.50;35.70;;;;;;4877976;28;86968;-84
2021/06/17 10:15:32;;;;;;;9.20;8.40;;;46.70;34.90;;;;;;4861409;28;86850;-84
2021/06/17 10:17:57;;;;;;;8.95;8.35;;;47.30;34.60;;;;;;4856765;29;86832;-84
2021/06/17 10:20:23;;;;;;;8.60;8.10;;;47.80;34.00;;;;;;4859132;29;86697;-84
2021/06/17 10:22:54;;;;;;;8.75;8.15;;;47.70;32.60;;;;;;4858925;29;87107;-84
2021/06/17 10:25:24;;;;;;;8.85;8.23;;;48.10;31.90;;;;;;4871119;29;86830;-84
2021/06/17 10:31:32;;;;;;;8.93;8.43;;;48.20;31.20;;;;;;4874114;29;87870;-86
2021/06/17 10:34:20;;;;;;;8.82;8.13;;;47.70;32.20;;;;;;4876855;29;89331;-85
2021/06/17 10:37:10;;;;;;;8.98;8.23;;;47.70;31.70;;;;;;4876207;29;87222;-84
2021/06/17 10:39:44;;;;;;;8.30;7.70;;;48.50;30.30;;;;;;4876334;28;86877;-85
2021/06/17 10:42:33;;;;;;;8.25;7.65;;;48.90;29.40;;;;;;4876039;28;87156;-84
2021/06/17 10:45:01;;;;;;;8.20;7.80;;;49.20;28.70;;;;;;4877776;29;86933;-84
2021/06/17 10:47:43;;;;;;;8.50;8.07;;;49.70;29.30;;;;;;4877622;29;86393;-84
2021/06/17 10:50:17;;;;;;;8.35;7.82;;;49.90;27.30;;;;;;4878022;28;86084;-85
2021/06/17 10:52:43;;;;;;;8.35;7.85;;;49.10;28.30;;;;;;4878727;29;86704;-84
2021/06/17 10:55:11;;;;;;;8.82;8.13;;;49.50;28.50;;;;;;4879147;28;87230;-85
2021/06/17 10:57:49;;;;;;;8.10;7.60;;;49.60;29.00;;;;;;4876127;29;87559;-85
2021/06/17 11:02:54;;;;;;;8.68;8.18;;;50.10;27.40;;;;;;4881976;29;86792;-85
2021/06/17 11:05:29;;;;;;;8.45;8.00;;;50.40;27.70;;;;;;4881890;28;87246;-86
2021/06/17 11:11:30;;;;;;;9.25;8.48;;;51.00;28.10;;;;;;4878528;29;86716;-86
2021/06/17 11:13:56;;;;;;;8.93;8.43;;;50.80;27.90;;;;;;4877423;28;86873;-85
2021/06/17 11:16:22;;;;;;;9.50;8.80;;;50.80;27.70;;;;;;4878713;28;87288;-85
2021/06/17 11:19:31;;;;;;;9.50;9.00;;;50.40;28.50;;;;;;4879746;29;86744;-86
2021/06/17 11:21:39;;;;;;;9.40;8.82;;;50.70;28.10;;;;;;4880876;28;86742;-85
2021/06/17 11:24:11;;;;;;;10.02;9.40;;;50.90;28.40;;;;;;4872053;29;89578;-85
2021/06/17 11:26:40;;;;;;;9.27;8.77;;;50.80;28.30;;;;;;4866086;29;88403;-85
2021/06/17 11:29:08;;;;;;;10.27;9.48;;;51.10;28.00;;;;;;4863244;29;86722;-85
2021/06/17 11:31:43;;;;;;;9.85;9.30;;;51.00;28.40;;;;;;4871873;28;86262;-85
2021/06/17 11:34:11;;;;;;;10.50;9.80;;;51.40;27.90;;;;;;4876045;29;87597;-86
2021/06/17 11:36:48;;;;;;;10.32;9.73;;;51.60;28.50;;;;;;4872849;29;88358;-86
2021/06/17 11:39:21;;;;;;;10.43;9.80;;;51.20;28.10;;;;;;4881786;29;86636;-85
2021/06/17 11:41:47;;;;;;;9.95;9.45;;;51.30;28.20;;;;;;4876019;28;86312;-85
2021/06/17 11:44:23;;;;;;;9.93;9.43;;;51.40;28.40;;;;;;4876837;28;88970;-85
2021/06/17 11:46:51;;;;;;;10.50;9.90;;;51.80;28.00;;;;;;4869941;28;86902;-85
2021/06/17 11:49:18;;;;;;;10.98;10.35;;;51.80;28.20;;;;;;4866560;28;87815;-85
2021/06/17 11:51:52;;;;;;;10.02;9.50;;;51.70;28.50;;;;;;4862040;28;87035;-87
2021/06/17 11:54:20;;;;;;;10.02;9.52;;;52.10;28.10;;;;;;4870232;29;87795;-87
2021/06/17 11:56:51;;;;;;;10.93;10.32;;;52.60;28.30;;;;;;4869593;28;87489;-87
2021/06/17 11:59:25;;;;;;;11.63;10.80;;;52.80;28.00;;;;;;4870560;28;86732;-88
2021/06/17 12:02:27;;;;;;;10.90;10.30;;;52.60;28.20;;;;;;4868998;28;86701;-87
2021/06/17 12:05:06;;;;;;;10.52;9.93;;;52.60;28.00;;;;;;4855976;29;87525;-86
2021/06/17 12:07:34;;;;;;;10.85;10.25;;;52.20;28.80;;;;;;4853000;29;87463;-87
2021/06/17 12:10:19;;;;;;;10.70;10.00;;;52.20;28.70;;;;;;4854102;28;87141;-87
2021/06/17 12:12:47;;;;;;;11.30;10.60;;;52.30;28.20;;;;;;4853629;29;87114;-87
2021/06/17 12:15:36;;;;;;;11.30;10.60;;;52.00;28.20;;;;;;4862067;28;87919;-87
2021/06/17 12:18:05;;;;;;;11.32;10.55;;;51.80;27.90;;;;;;4864690;29;87761;-87
2021/06/17 12:20:39;;;;;;;11.15;10.38;;;51.20;28.80;;;;;;4861733;29;86978;-87
2021/06/17 12:23:09;;;;;;;10.25;9.70;;;51.00;28.10;;;;;;4881011;28;86633;-87
2021/06/17 12:25:47;;;;;;;11.02;10.25;;;50.40;29.00;;;;;;4859386;28;87719;-86
2021/06/17 12:28:15;;;;;;;11.17;10.37;;;50.30;28.00;;;;;;4853630;29;88457;-87
2021/06/17 12:30:42;;;;;;;10.10;9.60;;;50.20;28.50;;;;;;4852087;29;86763;-87
2021/06/17 12:33:11;;;;;;;10.70;10.00;;;49.80;28.40;;;;;;4863758;29;86230;-87
2021/06/17 12:35:43;;;;;;;10.00;9.40;;;49.90;28.80;;;;;;4865187;29;87739;-87
2021/06/17 12:38:10;;;;;;;10.05;9.55;;;50.10;28.20;;;;;;4865268;28;87023;-87
2021/06/17 12:40:39;;;;;;;10.93;10.02;;;50.00;28.40;;;;;;4854508;29;87287;-87
2021/06/17 12:43:18;;;;;;;10.20;9.48;;;49.00;29.40;;;;;;4865373;29;86853;-87
2021/06/17 12:46:01;;;;;;;10.40;9.70;;;48.90;29.20;;;;;;4854824;28;86762;-86
2021/06/17 12:54:22;;;;;;;9.02;8.52;;;48.50;28.30;;;;;;4871215;29;86666;-87
2021/06/17 12:57:02;;;;;;;9.13;8.63;;;48.00;27.90;;;;;;4875737;29;87037;-86
2021/06/17 12:59:34;;;;;;;9.10;8.60;;;48.20;28.80;;;;;;4870003;29;86223;-86
2021/06/17 13:02:00;;;;;;;9.20;8.70;;;48.20;28.90;;;;;;4878105;29;86652;-86
2021/06/17 13:04:26;;;;;;;8.43;7.93;;;47.80;28.40;;;;;;4864574;28;87113;-86
2021/06/17 13:06:51;;;;;;;8.10;7.70;;;47.60;28.60;;;;;;4866303;29;87974;-86
2021/06/17 13:09:29;;;;;;;8.63;8.13;;;47.80;28.30;;;;;;4878124;28;88076;-86
2021/06/17 13:12:16;;;;;;;8.50;7.97;;;47.90;28.90;;;;;;4875135;28;86674;-86
2021/06/17 13:15:00;;;;;;;8.50;8.00;;;48.00;27.70;;;;;;4875205;28;87004;-86
2021/06/17 13:17:26;;;;;;;8.68;8.07;;;47.70;28.00;;;;;;4873392;28;86888;-86
2021/06/17 13:19:53;;;;;;;8.57;8.05;;;47.50;28.50;;;;;;4867659;29;87381;-86
2021/06/17 13:22:20;;;;;;;8.50;8.00;;;47.50;28.60;;;;;;4869888;29;86877;-85
2021/06/17 13:24:47;;;;;;;8.18;7.68;;;47.10;28.60;;;;;;4878890;28;85538;-85
2021/06/17 13:27:16;;;;;;;7.78;7.38;;;47.00;28.40;;;;;;4881056;29;86668;-86
2021/06/17 13:29:51;;;;;;;8.38;7.88;;;46.90;28.50;;;;;;4884387;28;87260;-85
2021/06/17 13:32:17;;;;;;;8.57;8.07;;;46.90;28.70;;;;;;4880104;29;87435;-85
2021/06/17 13:34:43;;;;;;;8.55;8.05;;;46.80;28.50;;;;;;4884012;29;86479;-85
2021/06/17 13:37:09;;;;;;;8.27;7.80;;;46.40;28.70;;;;;;4879959;28;87233;-85
2021/06/17 13:39:35;;;;;;;9.13;8.45;;;46.10;28.70;;;;;;4873719;29;88243;-85
2021/06/17 13:42:00;;;;;;;9.05;8.50;;;45.70;29.60;;;;;;4873202;28;87049;-86
2021/06/17 13:44:26;;;;;;;8.50;7.95;;;44.90;28.80;;;;;;4871145;28;86969;-86
2021/06/17 13:46:52;;;;;;;8.38;7.88;;;44.70;29.60;;;;;;4872678;29;86929;-85
2021/06/17 13:49:17;;;;;;;8.55;8.15;;;44.60;30.00;;;;;;4876961;29;87344;-86
2021/06/17 13:51:43;;;;;;;8.88;8.38;;;44.40;29.90;;;;;;4873841;29;87808;-85
2021/06/17 13:54:09;;;;;;;8.82;8.32;;;44.00;29.90;;;;;;4872282;28;86726;-85
2021/06/17 13:56:35;;;;;;;8.43;7.93;;;43.60;30.20;;;;;;4870344;29;88663;-85
2021/06/17 13:59:00;;;;;;;8.20;7.80;;;43.40;31.50;;;;;;4872865;29;87882;-85
2021/06/17 14:01:26;;;;;;;8.70;8.20;;;43.30;31.40;;;;;;4873689;28;86789;-86
2021/06/17 14:03:54;;;;;;;7.97;7.47;;;43.20;32.50;;;;;;4874029;29;86781;-86
2021/06/17 14:06:20;;;;;;;7.75;7.25;;;43.00;31.80;;;;;;4873068;28;86948;-85
2021/06/17 14:08:46;;;;;;;8.02;7.55;;;42.80;32.30;;;;;;4864633;29;88114;-86
2021/06/17 14:11:12;;;;;;;8.07;7.50;;;42.40;31.80;;;;;;4865192;29;87135;-86
2021/06/17 14:13:38;;;;;;;8.15;7.45;;;42.30;32.20;;;;;;4868253;28;86224;-86
2021/06/17 14:16:04;;;;;;;7.80;7.30;;;42.30;31.00;;;;;;4879664;29;88207;-86
2021/06/17 14:18:30;;;;;;;7.72;7.05;;;42.10;31.80;;;;;;4877936;29;87122;-86
2021/06/17 14:20:55;;;;;;;7.95;7.38;;;41.80;32.30;;;;;;4875899;29;87642;-85
2021/06/17 14:23:21;;;;;;;7.63;7.07;;;41.70;32.20;;;;;;4879033;29;86235;-87
2021/06/17 14:25:49;;;;;;;7.40;6.90;;;41.50;32.90;;;;;;4869313;28;86741;-86
2021/06/17 14:28:15;;;;;;;7.70;7.20;;;41.40;32.60;;;;;;4863390;29;87841;-86
2021/06/17 14:30:41;;;;;;;8.02;7.32;;;41.20;32.60;;;;;;4880826;29;86721;-86
2021/06/17 14:33:08;;;;;;;7.90;7.30;;;41.00;33.80;;;;;;4878432;29;86877;-84
2021/06/17 14:35:34;;;;;;;7.18;6.78;;;40.80;33.90;;;;;;4877361;28;88092;-86
2021/06/17 14:38:00;;;;;;;7.60;7.10;;;40.50;34.50;;;;;;4878382;28;88444;-86
2021/06/17 14:40:26;;;;;;;7.28;6.75;;;40.40;33.70;;;;;;4865603;28;86976;-85
2021/06/17 14:42:52;;;;;;;7.57;7.10;;;40.30;34.20;;;;;;4861636;29;86952;-86
2021/06/17 14:45:17;;;;;;;7.55;6.95;;;40.10;33.70;;;;;;4865702;29;87910;-86
2021/06/17 14:47:43;;;;;;;7.20;6.70;;;40.00;34.60;;;;;;4873529;28;87076;-85
2021/06/17 14:50:10;;;;;;;7.32;6.93;;;39.90;34.50;;;;;;4877653;29;86995;-86
2021/06/17 14:52:35;;;;;;;7.50;7.00;;;39.90;34.90;;;;;;4879681;29;86400;-86
2021/06/17 14:55:01;;;;;;;7.50;6.80;;;39.70;34.00;;;;;;4874319;29;88777;-85
2021/06/17 14:57:27;;;;;;;7.28;6.72;;;39.60;34.20;;;;;;4871433;29;87043;-86
2021/06/17 14:59:53;;;;;;;7.13;6.60;;;39.50;34.50;;;;;;4877403;29;86494;-85
2021/06/17 15:02:18;;;;;;;7.03;6.53;;;39.20;35.50;;;;;;4871486;29;86352;-86
2021/06/17 15:04:44;;;;;;;7.00;6.40;;;39.00;34.00;;;;;;4880252;28;87494;-85
2021/06/17 15:07:10;;;;;;;7.07;6.47;;;39.00;34.90;;;;;;4879065;29;88234;-85
2021/06/17 15:09:35;;;;;;;6.63;6.22;;;38.90;35.30;;;;;;4872919;29;87580;-85
2021/06/17 15:12:01;;;;;;;7.00;6.50;;;38.60;34.70;;;;;;4877872;29;87031;-84
2021/06/17 15:14:27;;;;;;;6.93;6.40;;;38.40;35.30;;;;;;4877799;28;88423;-84
2021/06/17 15:16:53;;;;;;;6.57;6.18;;;38.30;35.80;;;;;;4870010;29;87977;-84
2021/06/17 15:19:18;;;;;;;7.15;6.70;;;38.30;35.80;;;;;;4876141;29;86970;-85
2021/06/17 15:21:44;;;;;;;6.50;6.10;;;38.10;35.50;;;;;;4877367;29;86950;-85
2021/06/17 15:24:10;;;;;;;6.38;5.93;;;38.00;36.30;;;;;;4878608;29;87289;-85
2021/06/17 15:26:37;;;;;;;6.70;6.20;;;37.80;36.70;;;;;;4878606;28;87725;-85
2021/06/17 15:29:03;;;;;;;6.90;6.50;;;37.70;36.20;;;;;;4864875;28;87065;-85
2021/06/17 15:31:28;;;;;;;6.53;6.13;;;37.60;35.20;;;;;;4869830;29;86999;-85
2021/06/17 15:33:54;;;;;;;6.75;6.10;;;37.40;34.90;;;;;;4875945;28;87977;-85
2021/06/17 15:36:21;;;;;;;6.22;5.72;;;37.40;35.60;;;;;;4877003;28;88676;-84
2021/06/17 15:38:47;;;;;;;6.82;6.35;;;37.30;36.00;;;;;;4875156;28;87144;-84
2021/06/17 15:41:13;;;;;;;6.85;6.35;;;37.20;36.20;;;;;;4878758;29;86929;-86
2021/06/17 15:43:38;;;;;;;6.68;6.18;;;37.00;35.80;;;;;;4873193;28;87470;-84
2021/06/17 15:46:05;;;;;;;7.05;6.45;;;36.70;36.20;;;;;;4871318;28;88371;-84
2021/06/17 15:48:31;;;;;;;6.53;6.03;;;36.70;36.70;;;;;;4868295;29;87116;-84
2021/06/17 15:50:57;;;;;;;6.70;6.30;;;36.70;37.00;;;;;;4872568;29;86194;-85
2021/06/17 15:53:24;;;;;;;7.00;6.50;;;36.50;36.60;;;;;;4867833;29;88364;-84
2021/06/17 15:55:50;;;;;;;6.78;6.35;;;36.40;37.70;;;;;;4868823;29;87283;-84
2021/06/17 15:58:16;;;;;;;6.32;5.93;;;36.20;36.90;;;;;;4876302;28;87876;-84
2021/06/17 16:00:42;;;;;;;6.88;6.35;;;36.10;37.20;;;;;;4892257;28;87065;-84
2021/06/17 16:03:09;;;;;;;6.85;6.20;;;36.00;37.50;;;;;;4867989;29;87505;-84